createdAt,value
2023-05-15T00:01:25.989Z,91735.86
2023-05-15T00:03:55.338Z,91737.36
2023-05-15T00:06:23.836Z,91735.67
2023-05-15T00:08:52.049Z,91738.22
2023-05-15T00:11:21.476Z,91745.33
2023-05-15T00:13:51.145Z,91756.02
2023-05-15T00:16:19.503Z,91757.81
2023-05-15T00:18:47.807Z,91748.98
2023-05-15T00:21:17.204Z,91735.18
2023-05-15T00:23:47.604Z,91731.40
2023-05-15T00:26:15.999Z,91741.11
2023-05-15T00:28:44.288Z,91747.94
2023-05-15T00:31:13.354Z,91742.90
2023-05-15T00:33:41.618Z,91729.91
2023-05-15T00:36:11.535Z,91718.42
2023-05-15T00:38:40.680Z,91708.50
2023-05-15T00:41:12.034Z,91705.50
2023-05-15T00:43:41.924Z,91698.06
2023-05-15T00:46:12.906Z,91692.13
2023-05-15T00:48:42.609Z,91693.14
2023-05-15T00:51:12.152Z,91689.64
2023-05-15T00:53:41.759Z,91685.92
2023-05-15T00:56:12.755Z,91688.04
2023-05-15T00:58:42.699Z,91690.14
2023-05-15T01:01:11.399Z,91684.77
2023-05-15T01:03:40.097Z,91682.52
2023-05-15T01:06:08.514Z,91676.53
2023-05-15T01:08:36.833Z,91674.02
2023-05-15T01:11:07.866Z,91674.38
2023-05-15T01:13:36.036Z,91672.29
2023-05-15T01:16:06.983Z,91671.63
2023-05-15T01:18:36.035Z,91671.09
2023-05-15T01:21:08.286Z,91676.73
2023-05-15T01:24:04.630Z,91676.94
2023-05-15T01:26:57.742Z,91676.48
2023-05-15T01:29:47.424Z,91677.25
2023-05-15T01:32:32.306Z,91681.08
2023-05-15T01:35:06.742Z,91680.70
2023-05-15T01:37:41.502Z,91683.80
2023-05-15T01:40:12.208Z,91684.73
2023-05-15T01:42:48.228Z,91681.23
2023-05-15T01:45:18.664Z,91683.44
2023-05-15T01:47:48.634Z,91683.04
2023-05-15T01:50:19.242Z,91677.48
2023-05-15T01:52:51.671Z,91670.83
2023-05-15T01:55:23.204Z,91662.54
2023-05-15T01:57:52.859Z,91653.20
2023-05-15T02:00:21.898Z,91651.52
2023-05-15T02:02:51.128Z,91650.23
2023-05-15T02:05:21.055Z,91643.88
2023-05-15T02:07:50.068Z,91643.73
2023-05-15T02:10:19.744Z,91637.25
2023-05-15T02:12:50.368Z,91635.09
2023-05-15T02:15:21.115Z,91633.21
2023-05-15T02:17:49.433Z,91631.33
2023-05-15T02:20:17.807Z,91625.66
2023-05-15T02:22:46.135Z,91620.33
2023-05-15T02:25:16.573Z,91619.55
2023-05-15T02:28:00.489Z,91615.30
2023-05-15T02:30:38.537Z,91614.16
2023-05-15T02:33:28.026Z,91614.20
2023-05-15T02:36:01.957Z,91609.64
2023-05-15T02:38:36.145Z,91614.64
2023-05-15T02:41:06.386Z,91615.94
2023-05-15T02:43:36.668Z,91619.48
2023-05-15T02:46:07.635Z,91608.74
2023-05-15T02:48:41.549Z,91612.41
2023-05-15T02:51:11.041Z,91612.80
2023-05-15T02:53:41.009Z,91611.30
2023-05-15T02:56:10.101Z,91611.67
2023-05-15T02:58:39.474Z,91606.23
2023-05-15T03:01:07.898Z,91607.38
2023-05-15T03:03:36.389Z,91607.64
2023-05-15T03:06:04.779Z,91601.73
2023-05-15T03:08:32.934Z,91601.70
2023-05-15T03:11:01.285Z,91603.85
2023-05-15T03:13:29.755Z,91600.20
2023-05-15T03:15:58.121Z,91603.61
2023-05-15T03:18:26.499Z,91603.57
2023-05-15T03:20:55.166Z,91603.67
2023-05-15T03:23:23.449Z,91604.27
2023-05-15T03:25:51.778Z,91603.11
2023-05-15T03:28:20.032Z,91604.94
2023-05-15T03:30:48.248Z,91601.67
2023-05-15T03:33:16.614Z,91601.23
2023-05-15T03:35:44.949Z,91597.35
2023-05-15T03:38:13.192Z,91595.66
2023-05-15T03:40:41.437Z,91599.54
2023-05-15T03:43:09.771Z,91594.41
2023-05-15T03:45:39.274Z,91588.52
2023-05-15T03:48:07.596Z,91585.11
2023-05-15T03:50:36.625Z,91582.44
2023-05-15T03:53:05.027Z,91585.50
2023-05-15T03:55:33.554Z,91589.29
2023-05-15T03:58:02.396Z,91592.17
2023-05-15T04:00:30.638Z,91595.52
2023-05-15T04:02:58.970Z,91601.69
2023-05-15T04:05:27.862Z,91599.79
2023-05-15T04:07:56.342Z,91596.43
2023-05-15T04:10:24.882Z,91597.11
2023-05-15T04:12:53.286Z,91591.34
2023-05-15T04:15:24.018Z,91591.36
2023-05-15T04:17:54.171Z,91586.17
2023-05-15T04:20:24.569Z,91580.48
2023-05-15T04:22:53.713Z,91581.42
2023-05-15T04:25:22.186Z,91576.23
2023-05-15T04:27:51.017Z,91575.81
2023-05-15T04:30:19.491Z,91570.55
2023-05-15T04:32:47.849Z,91574.38
2023-05-15T04:35:16.479Z,91577.61
2023-05-15T04:37:48.034Z,91576.48
2023-05-15T04:40:16.828Z,91572.09
2023-05-15T04:42:45.707Z,91569.21
2023-05-15T04:45:15.061Z,91565.68
2023-05-15T04:47:43.416Z,91564.90
2023-05-15T04:50:11.922Z,91556.27
2023-05-15T04:52:40.141Z,91554.52
2023-05-15T04:55:09.466Z,91550.39
2023-05-15T04:57:37.656Z,91546.34
2023-05-15T05:00:12.082Z,91545.39
2023-05-15T05:02:41.690Z,91550.40
2023-05-15T05:05:10.595Z,91550.79
2023-05-15T05:07:38.744Z,91552.27
2023-05-15T05:10:08.017Z,91550.88
2023-05-15T05:12:36.223Z,91542.95
2023-05-15T05:15:05.054Z,91542.02
2023-05-15T05:17:33.385Z,91545.83
2023-05-15T05:20:01.717Z,91549.16
2023-05-15T05:22:31.110Z,91547.48
2023-05-15T05:24:59.333Z,91543.36
2023-05-15T05:27:28.573Z,91547.48
2023-05-15T05:29:56.853Z,91542.98
2023-05-15T05:32:25.299Z,91554.20
2023-05-15T05:34:53.598Z,91552.56
2023-05-15T05:37:21.906Z,91553.00
2023-05-15T05:39:50.059Z,91554.02
2023-05-15T05:42:18.333Z,91555.45
2023-05-15T05:44:46.523Z,91556.48
2023-05-15T05:47:14.824Z,91549.96
2023-05-15T05:49:43.628Z,91549.02
2023-05-15T05:52:11.844Z,91542.70
2023-05-15T05:54:40.000Z,91547.08
2023-05-15T05:57:10.226Z,91540.85
2023-05-15T05:59:38.477Z,91544.48
2023-05-15T06:02:08.325Z,91541.62
2023-05-15T06:04:36.985Z,91536.61
2023-05-15T06:07:05.501Z,91536.61
2023-05-15T06:09:33.728Z,91534.09
2023-05-15T06:12:04.764Z,91533.19
2023-05-15T06:14:33.058Z,91522.17
2023-05-15T06:17:01.589Z,91519.14
2023-05-15T06:19:30.500Z,91521.27
2023-05-15T06:21:58.797Z,91521.35
2023-05-15T06:24:27.149Z,91519.05
2023-05-15T06:26:55.504Z,91514.71
2023-05-15T06:29:23.669Z,91519.95
2023-05-15T06:31:51.872Z,91515.53
2023-05-15T06:34:20.089Z,91518.90
2023-05-15T06:36:48.389Z,91521.64
2023-05-15T06:39:16.601Z,91523.98
2023-05-15T06:41:44.794Z,91529.95
2023-05-15T06:44:13.673Z,91527.66
2023-05-15T06:46:41.872Z,91521.73
2023-05-15T06:49:10.054Z,91517.00
2023-05-15T06:51:38.163Z,91508.97
2023-05-15T06:54:06.600Z,91499.67
2023-05-15T06:56:34.760Z,91498.16
2023-05-15T06:59:02.991Z,91492.27
2023-05-15T07:01:32.344Z,91493.86
2023-05-15T07:04:00.691Z,91488.16
2023-05-15T07:06:29.336Z,91487.21
2023-05-15T07:08:58.743Z,91483.01
2023-05-15T07:11:27.261Z,91472.77
2023-05-15T07:13:55.644Z,91469.40
2023-05-15T07:16:23.776Z,91465.97
2023-05-15T07:18:52.242Z,91462.80
2023-05-15T07:21:20.660Z,91460.84
2023-05-15T07:23:48.925Z,91469.38
2023-05-15T07:26:23.589Z,91476.16
2023-05-15T07:28:59.784Z,91473.86
2023-05-15T07:31:27.991Z,91473.72
2023-05-15T07:33:56.330Z,91477.06
2023-05-15T07:36:24.702Z,91475.44
2023-05-15T07:38:52.922Z,91471.25
2023-05-15T07:41:22.181Z,91467.61
2023-05-15T07:43:50.517Z,91469.13
2023-05-15T07:46:18.876Z,91469.82
2023-05-15T07:48:47.253Z,91461.27
2023-05-15T07:51:16.207Z,91459.17
2023-05-15T07:53:44.418Z,91463.73
2023-05-15T07:56:12.689Z,91462.73
2023-05-15T07:58:41.092Z,91458.73
2023-05-15T08:01:09.396Z,91459.63
2023-05-15T08:03:37.694Z,91453.33
2023-05-15T08:06:07.528Z,91461.98
2023-05-15T08:08:35.857Z,91467.92
2023-05-15T08:11:04.137Z,91468.23
2023-05-15T08:13:32.292Z,91472.27
2023-05-15T08:16:00.511Z,91465.56
2023-05-15T08:18:28.813Z,91474.57
2023-05-15T08:20:57.040Z,91470.75
2023-05-15T08:23:25.274Z,91468.95
2023-05-15T08:25:53.434Z,91473.63
2023-05-15T08:28:21.707Z,91470.89
2023-05-15T08:30:49.855Z,91468.73
2023-05-15T08:33:18.086Z,91465.05
2023-05-15T08:35:46.457Z,91463.41
2023-05-15T08:38:14.675Z,91457.95
2023-05-15T08:40:47.386Z,91447.79
2023-05-15T08:43:21.224Z,91443.79
2023-05-15T08:45:50.461Z,91439.97
2023-05-15T08:48:21.795Z,91439.23
2023-05-15T08:50:51.243Z,91434.80
2023-05-15T08:53:20.354Z,91438.98
2023-05-15T08:55:48.688Z,91439.75
2023-05-15T08:58:17.559Z,91442.16
2023-05-15T09:00:46.333Z,91450.63
2023-05-15T09:03:16.835Z,91456.91
2023-05-15T09:05:48.272Z,91461.13
2023-05-15T09:08:18.236Z,91466.01
2023-05-15T09:10:47.207Z,91460.95
2023-05-15T09:13:15.810Z,91461.15
2023-05-15T09:15:46.952Z,91460.98
2023-05-15T09:18:16.427Z,91456.02
2023-05-15T09:20:44.568Z,91458.85
2023-05-15T09:23:27.436Z,91460.20
2023-05-15T09:25:57.220Z,91460.75
2023-05-15T09:28:33.885Z,91458.66
2023-05-15T09:31:04.242Z,91456.11
2023-05-15T09:33:35.408Z,91458.00
2023-05-15T09:36:06.295Z,91458.19
2023-05-15T09:38:43.838Z,91461.04
2023-05-15T09:41:12.100Z,91460.66
2023-05-15T09:43:41.358Z,91464.83
2023-05-15T09:46:12.430Z,91459.30
2023-05-15T09:48:40.925Z,91455.77
2023-05-15T09:51:19.792Z,91451.54
2023-05-15T09:53:55.489Z,91445.71
2023-05-15T09:56:25.201Z,91443.31
2023-05-15T09:58:54.998Z,91443.36
2023-05-15T10:01:23.767Z,91436.40
2023-05-15T10:04:01.681Z,91433.99
2023-05-15T10:06:42.825Z,91434.66
2023-05-15T10:09:14.215Z,91434.20
2023-05-15T10:11:47.408Z,91438.23
2023-05-15T10:14:18.840Z,91438.89
2023-05-15T10:16:47.105Z,91444.22
2023-05-15T10:19:15.596Z,91445.22
2023-05-15T10:21:44.702Z,91445.77
2023-05-15T10:24:14.001Z,91442.23
2023-05-15T10:26:43.428Z,91441.36
2023-05-15T10:29:17.591Z,91439.17
2023-05-15T10:31:49.213Z,91435.48
2023-05-15T10:34:18.966Z,91441.92
2023-05-15T10:36:50.303Z,91438.35
2023-05-15T10:39:20.331Z,91442.08
2023-05-15T10:41:51.046Z,91439.67
2023-05-15T10:44:20.767Z,91441.32
2023-05-15T10:46:49.653Z,91439.52
2023-05-15T10:49:18.031Z,91437.91
2023-05-15T10:51:46.515Z,91431.98
2023-05-15T10:54:15.587Z,91434.08
2023-05-15T10:56:43.871Z,91434.41
2023-05-15T10:59:12.541Z,91433.45
2023-05-15T11:01:41.587Z,91431.98
2023-05-15T11:04:17.969Z,91428.70
2023-05-15T11:06:50.976Z,91433.85
2023-05-15T11:09:22.415Z,91434.66
2023-05-15T11:11:54.873Z,91438.98
2023-05-15T11:14:27.413Z,91436.88
2023-05-15T11:16:55.692Z,91434.63
2023-05-15T11:19:33.257Z,91426.84
2023-05-15T11:22:01.519Z,91422.19
2023-05-15T11:24:48.098Z,91427.73
2023-05-15T11:27:24.227Z,91432.63
2023-05-15T11:30:11.089Z,91433.92
2023-05-15T11:33:08.642Z,91428.77
2023-05-15T11:35:43.328Z,91429.95
2023-05-15T11:38:15.432Z,91429.30
2023-05-15T11:40:44.954Z,91431.25
2023-05-15T11:43:22.585Z,91426.04
2023-05-15T11:45:59.083Z,91418.36
2023-05-15T11:48:35.434Z,91411.60
2023-05-15T11:51:05.698Z,91409.42
2023-05-15T11:53:33.939Z,91406.73
2023-05-15T11:56:02.300Z,91408.16
2023-05-15T11:58:30.512Z,91409.45
2023-05-15T12:00:58.802Z,91410.52
2023-05-15T12:03:36.633Z,91408.00
2023-05-15T12:06:05.246Z,91406.41
2023-05-15T12:08:42.071Z,91405.52
2023-05-15T12:11:11.231Z,91406.99
2023-05-15T12:13:39.664Z,91407.49
2023-05-15T12:16:08.128Z,91409.41
2023-05-15T12:18:36.475Z,91410.82
2023-05-15T12:21:06.088Z,91411.44
2023-05-15T12:23:34.234Z,91409.75
2023-05-15T12:26:03.870Z,91406.27
2023-05-15T12:28:35.761Z,91406.27
2023-05-15T12:31:04.361Z,91399.52
2023-05-15T12:33:32.784Z,91398.71
2023-05-15T12:36:01.859Z,91396.17
2023-05-15T12:38:30.855Z,91393.08
2023-05-15T12:40:59.366Z,91390.14
2023-05-15T12:43:27.978Z,91387.36
2023-05-15T12:45:57.506Z,91386.90
2023-05-15T12:48:32.826Z,91390.59
2023-05-15T12:51:08.056Z,91398.95
2023-05-15T12:53:39.831Z,91406.37
2023-05-15T12:56:16.250Z,91412.15
2023-05-15T12:58:44.588Z,91411.06
2023-05-15T13:01:13.002Z,91396.90
2023-05-15T13:03:44.556Z,91393.67
2023-05-15T13:06:13.069Z,91394.00
2023-05-15T13:08:42.214Z,91387.70
2023-05-15T13:11:14.555Z,91385.73
2023-05-15T13:13:49.525Z,91390.80
2023-05-15T13:16:19.501Z,91395.45
2023-05-15T13:18:48.173Z,91404.84
2023-05-15T13:21:16.638Z,91398.36
2023-05-15T13:23:44.888Z,91398.59
2023-05-15T13:26:13.161Z,91392.50
2023-05-15T13:28:41.621Z,91392.30
2023-05-15T13:31:10.125Z,91387.56
2023-05-15T13:33:38.490Z,91389.90
2023-05-15T13:36:07.160Z,91385.83
2023-05-15T13:38:35.413Z,91387.09
2023-05-15T13:41:06.816Z,91391.05
2023-05-15T13:43:35.016Z,91391.40
2023-05-15T13:46:03.211Z,91391.19
2023-05-15T13:48:32.167Z,91397.23
2023-05-15T13:51:00.946Z,91396.77
2023-05-15T13:53:29.176Z,91393.35
2023-05-15T13:55:57.647Z,91393.71
2023-05-15T13:58:26.900Z,91396.71
2023-05-15T14:00:55.272Z,91388.80
2023-05-15T14:03:23.723Z,91384.88
2023-05-15T14:05:52.910Z,91386.73
2023-05-15T14:08:21.233Z,91383.73
2023-05-15T14:10:49.554Z,91385.78
2023-05-15T14:13:18.929Z,91384.89
2023-05-15T14:15:47.089Z,91387.95
2023-05-15T14:18:15.378Z,91388.94
2023-05-15T14:20:43.649Z,91390.77
2023-05-15T14:23:11.958Z,91391.45
2023-05-15T14:25:41.372Z,91395.71
2023-05-15T14:28:09.692Z,91391.20
2023-05-15T14:30:37.844Z,91389.95
2023-05-15T14:33:06.009Z,91387.59
2023-05-15T14:35:34.273Z,91386.58
2023-05-15T14:38:03.133Z,91389.59
2023-05-15T14:40:31.335Z,91387.42
2023-05-15T14:42:59.543Z,91380.98
2023-05-15T14:45:27.833Z,91382.02
2023-05-15T14:47:56.050Z,91383.90
2023-05-15T14:50:24.615Z,91384.15
2023-05-15T14:52:53.103Z,91381.10
2023-05-15T14:55:22.245Z,91380.88
2023-05-15T14:57:50.614Z,91376.36
2023-05-15T15:00:19.014Z,91371.19
2023-05-15T15:02:47.272Z,91379.27
2023-05-15T15:05:16.037Z,91380.04
2023-05-15T15:08:03.843Z,91382.16
2023-05-15T15:10:36.934Z,91382.14
2023-05-15T15:13:06.351Z,91383.77
2023-05-15T15:15:35.055Z,91384.37
2023-05-15T15:18:03.571Z,91386.98
2023-05-15T15:20:31.768Z,91389.40
2023-05-15T15:23:00.354Z,91394.55
2023-05-15T15:25:30.731Z,91393.33
2023-05-15T15:28:00.477Z,91394.02
2023-05-15T15:30:28.869Z,91396.77
2023-05-15T15:32:58.036Z,91394.27
2023-05-15T15:35:26.410Z,91395.98
2023-05-15T15:37:54.753Z,91390.85
2023-05-15T15:40:24.176Z,91388.74
2023-05-15T15:42:54.346Z,91388.11
2023-05-15T15:45:23.220Z,91388.09
2023-05-15T15:47:51.431Z,91389.34
2023-05-15T15:50:19.784Z,91386.77
2023-05-15T15:52:47.968Z,91384.29
2023-05-15T15:55:16.171Z,91379.29
2023-05-15T15:57:45.072Z,91383.70
2023-05-15T16:00:13.767Z,91387.09
2023-05-15T16:02:42.075Z,91387.05
2023-05-15T16:05:10.986Z,91381.11
2023-05-15T16:07:39.299Z,91380.38
2023-05-15T16:10:12.863Z,91381.52
2023-05-15T16:12:42.710Z,91388.92
2023-05-15T16:17:44.395Z,91400.02
2023-05-15T16:20:12.696Z,91398.96
2023-05-15T16:22:41.982Z,91396.42
2023-05-15T16:25:10.428Z,91395.21
2023-05-15T16:27:38.630Z,91389.13
2023-05-15T16:30:07.564Z,91391.16
2023-05-15T16:32:36.324Z,91390.74
2023-05-15T16:35:05.171Z,91391.26
2023-05-15T16:37:33.501Z,91396.39
2023-05-15T16:40:01.831Z,91396.96
2023-05-15T16:42:30.072Z,91401.44
2023-05-15T16:44:58.435Z,91403.36
2023-05-15T16:47:26.670Z,91399.13
2023-05-15T16:49:55.262Z,91400.01
2023-05-15T16:52:23.535Z,91402.48
2023-05-15T16:54:51.637Z,91401.41
2023-05-15T16:57:20.458Z,91406.55
2023-05-15T16:59:48.742Z,91409.21
2023-05-15T17:02:17.034Z,91412.55
2023-05-15T17:04:45.278Z,91413.02
2023-05-15T17:07:13.471Z,91416.73
2023-05-15T17:09:43.286Z,91425.73
2023-05-15T17:12:11.943Z,91432.14
2023-05-15T17:14:40.316Z,91431.08
2023-05-15T17:17:08.536Z,91434.98
2023-05-15T17:19:36.750Z,91441.91
2023-05-15T17:22:05.300Z,91441.59
2023-05-15T17:24:49.489Z,91441.91
2023-05-15T17:27:20.574Z,91445.90
2023-05-15T17:29:48.956Z,91447.66
2023-05-15T17:32:18.158Z,91453.80
2023-05-15T17:34:46.635Z,91452.21
2023-05-15T17:37:15.076Z,91449.77
2023-05-15T17:39:43.835Z,91454.42
2023-05-15T17:42:12.104Z,91451.45
2023-05-15T17:44:40.497Z,91464.08
2023-05-15T17:47:10.402Z,91463.11
2023-05-15T17:49:39.743Z,91472.70
2023-05-15T17:52:08.832Z,91473.58
2023-05-15T17:54:37.083Z,91471.05
2023-05-15T17:57:05.831Z,91466.63
2023-05-15T17:59:34.315Z,91465.15
2023-05-15T18:02:02.833Z,91464.77
2023-05-15T18:04:31.266Z,91466.95
2023-05-15T18:06:59.542Z,91466.44
2023-05-15T18:09:27.951Z,91467.29
2023-05-15T18:11:56.266Z,91475.14
2023-05-15T18:14:24.462Z,91479.79
2023-05-15T18:16:52.769Z,91483.23
2023-05-15T18:19:21.369Z,91485.33
2023-05-15T18:21:49.804Z,91490.73
2023-05-15T18:24:18.017Z,91490.59
2023-05-15T18:26:46.294Z,91490.00
2023-05-15T18:29:14.598Z,91492.02
2023-05-15T18:31:42.820Z,91491.19
2023-05-15T18:34:11.092Z,91492.79
2023-05-15T18:36:39.296Z,91492.20
2023-05-15T18:39:07.651Z,91495.19
2023-05-15T18:41:35.921Z,91499.39
2023-05-15T18:44:04.404Z,91503.89
2023-05-15T18:46:34.206Z,91498.15
2023-05-15T18:49:02.590Z,91500.60
2023-05-15T18:51:31.513Z,91502.09
2023-05-15T18:53:59.760Z,91506.28
2023-05-15T18:56:28.626Z,91500.60
2023-05-15T18:58:56.948Z,91510.14
2023-05-15T19:01:25.323Z,91507.06
2023-05-15T19:03:53.607Z,91508.05
2023-05-15T19:06:21.855Z,91507.90
2023-05-15T19:08:50.078Z,91506.61
2023-05-15T19:11:18.322Z,91511.98
2023-05-15T19:13:46.859Z,91512.31
2023-05-15T19:16:15.176Z,91514.11
2023-05-15T19:18:43.540Z,91520.49
2023-05-15T19:21:11.997Z,91523.86
2023-05-15T19:23:40.196Z,91519.68
2023-05-15T19:26:10.498Z,91518.27
2023-05-15T19:28:38.965Z,91513.91
2023-05-15T19:31:14.051Z,91514.81
2023-05-15T19:33:49.131Z,91515.51
2023-05-15T19:36:18.858Z,91521.02
2023-05-15T19:38:47.107Z,91519.96
2023-05-15T19:41:15.501Z,91522.16
2023-05-15T19:43:46.555Z,91526.23
2023-05-15T19:46:14.828Z,91528.08
2023-05-15T19:48:43.690Z,91530.98
2023-05-15T19:51:11.986Z,91528.94
2023-05-15T19:53:41.442Z,91525.98
2023-05-15T19:56:09.724Z,91520.92
2023-05-15T19:58:37.929Z,91521.40
2023-05-15T20:01:06.181Z,91523.50
2023-05-15T20:03:34.829Z,91528.73
2023-05-15T20:06:03.665Z,91530.23
2023-05-15T20:08:31.866Z,91532.92
2023-05-15T20:11:01.343Z,91528.54
2023-05-15T20:13:29.768Z,91525.23
2023-05-15T20:15:59.075Z,91526.84
2023-05-15T20:18:32.218Z,91528.85
2023-05-15T20:21:02.833Z,91534.64
2023-05-15T20:23:31.123Z,91534.48
2023-05-15T20:25:59.356Z,91540.10
2023-05-15T20:28:29.109Z,91540.06
2023-05-15T20:30:57.875Z,91536.44
2023-05-15T20:33:26.230Z,91544.60
2023-05-15T20:35:54.861Z,91542.61
2023-05-15T20:38:25.795Z,91541.48
2023-05-15T20:40:54.596Z,91539.85
2023-05-15T20:43:23.437Z,91542.82
2023-05-15T20:45:52.028Z,91545.66
2023-05-15T20:48:20.400Z,91545.79
2023-05-15T20:50:50.239Z,91541.50
2023-05-15T20:53:18.482Z,91541.28
2023-05-15T20:55:46.998Z,91537.93
2023-05-15T20:58:15.240Z,91545.02
2023-05-15T21:00:43.487Z,91544.66
2023-05-15T21:03:11.968Z,91546.55
2023-05-15T21:05:40.600Z,91551.20
2023-05-15T21:08:08.908Z,91549.73
2023-05-15T21:10:37.415Z,91552.30
2023-05-15T21:13:05.618Z,91548.82
2023-05-15T21:15:33.798Z,91555.56
2023-05-15T21:18:02.303Z,91549.20
2023-05-15T21:20:32.831Z,91545.61
2023-05-15T21:23:03.421Z,91540.45
2023-05-15T21:25:33.376Z,91540.52
2023-05-15T21:28:03.995Z,91543.22
2023-05-15T21:30:32.270Z,91539.81
2023-05-15T21:33:00.864Z,91534.33
2023-05-15T21:35:31.086Z,91533.44
2023-05-15T21:37:59.889Z,91532.51
2023-05-15T21:40:28.473Z,91529.38
2023-05-15T21:42:56.977Z,91527.55
2023-05-15T21:45:25.217Z,91524.34
2023-05-15T21:47:53.589Z,91525.50
2023-05-15T21:50:21.873Z,91525.36
2023-05-15T21:52:51.715Z,91522.48
2023-05-15T21:55:20.033Z,91536.76
2023-05-15T21:57:48.287Z,91544.05
2023-05-15T22:00:17.206Z,91544.80
2023-05-15T22:02:45.495Z,91542.17
2023-05-15T22:05:14.094Z,91539.73
2023-05-15T22:07:42.356Z,91534.42
2023-05-15T22:10:16.449Z,91533.11
2023-05-15T22:12:45.070Z,91525.49
2023-05-15T22:15:14.708Z,91524.08
2023-05-15T22:17:42.953Z,91519.27
2023-05-15T22:20:13.262Z,91517.70
2023-05-15T22:22:42.551Z,91511.21
2023-05-15T22:25:10.938Z,91509.64
2023-05-15T22:27:39.287Z,91506.91
2023-05-15T22:30:08.692Z,91509.71
2023-05-15T22:32:37.016Z,91515.85
2023-05-15T22:35:05.742Z,91516.98
2023-05-15T22:37:34.812Z,91513.82
2023-05-15T22:40:04.254Z,91510.04
2023-05-15T22:42:32.692Z,91503.98
2023-05-15T22:45:01.204Z,91502.09
2023-05-15T22:47:29.472Z,91498.86
2023-05-15T22:49:57.734Z,91493.45
2023-05-15T22:52:26.126Z,91493.20
2023-05-15T22:55:13.273Z,91493.66
2023-05-15T22:57:41.667Z,91493.75
2023-05-15T23:00:10.551Z,91494.10
2023-05-15T23:02:39.395Z,91494.70
2023-05-15T23:05:08.577Z,91496.33
2023-05-15T23:07:49.091Z,91493.98
2023-05-15T23:10:17.438Z,91491.05
2023-05-15T23:12:46.463Z,91489.19
2023-05-15T23:15:14.851Z,91487.36
2023-05-15T23:17:43.425Z,91488.36
2023-05-15T23:20:13.019Z,91486.38
2023-05-15T23:22:41.281Z,91489.35
2023-05-15T23:25:09.885Z,91490.36
2023-05-15T23:27:38.232Z,91486.80
2023-05-15T23:30:07.459Z,91485.01
2023-05-15T23:32:36.018Z,91484.11
2023-05-15T23:35:04.492Z,91481.58
2023-05-15T23:37:32.728Z,91476.81
2023-05-15T23:40:01.020Z,91475.25
2023-05-15T23:42:30.195Z,91476.13
2023-05-15T23:44:58.470Z,91476.84
2023-05-15T23:47:26.704Z,91472.94
2023-05-15T23:49:55.081Z,91467.28
2023-05-15T23:52:23.383Z,91466.42
2023-05-15T23:54:51.528Z,91466.88
2023-05-15T23:57:19.812Z,91462.95
2023-05-15T23:59:48.037Z,91463.81
